createdAt,value
2022-09-14T00:01:14.246Z,18.60
2022-09-14T00:01:54.306Z,18.48
2022-09-14T00:02:54.329Z,18.57
2022-09-14T00:03:54.279Z,18.50
2022-09-14T00:04:54.306Z,18.50
2022-09-14T00:05:54.340Z,18.45
2022-09-14T00:06:54.359Z,18.47
2022-09-14T00:07:54.390Z,18.37
2022-09-14T00:08:54.417Z,18.39
2022-09-14T00:09:54.446Z,18.35
2022-09-14T00:10:54.468Z,18.30
2022-09-14T00:11:54.620Z,18.39
2022-09-14T00:12:54.524Z,18.29
2022-09-14T00:13:54.554Z,18.37
2022-09-14T00:14:54.579Z,18.29
2022-09-14T00:16:01.780Z,18.35
2022-09-14T00:17:59.096Z,18.35
2022-09-14T00:18:58.653Z,18.33
2022-09-14T00:20:51.592Z,18.35
2022-09-14T00:21:51.610Z,18.35
2022-09-14T00:23:56.102Z,18.44
2022-09-14T00:24:55.658Z,18.50
2022-09-14T00:26:59.790Z,18.48
2022-09-14T00:27:59.733Z,18.48
2022-09-14T00:30:04.204Z,18.60
2022-09-14T00:31:03.758Z,18.50
2022-09-14T00:33:07.788Z,18.54
2022-09-14T00:34:07.799Z,18.52
2022-09-14T00:36:12.315Z,18.72
2022-09-14T00:37:11.845Z,18.67
2022-09-14T00:39:15.874Z,18.69
2022-09-14T00:40:15.948Z,18.70
2022-09-14T00:42:20.461Z,18.67
2022-09-14T00:43:19.933Z,18.63
2022-09-14T00:45:24.052Z,18.60
2022-09-14T00:46:23.974Z,18.62
2022-09-14T00:48:28.468Z,18.55
2022-09-14T00:49:28.024Z,18.57
2022-09-14T00:51:21.158Z,18.54
2022-09-14T00:52:21.178Z,18.50
2022-09-14T00:54:25.669Z,18.41
2022-09-14T00:55:25.240Z,18.42
2022-09-14T00:57:29.263Z,18.30
2022-09-14T00:58:29.278Z,18.25
2022-09-14T01:00:33.771Z,18.27
2022-09-14T01:01:33.408Z,18.36
2022-09-14T01:03:26.465Z,18.35
2022-09-14T01:04:26.484Z,18.39
2022-09-14T01:06:30.973Z,18.44
2022-09-14T01:07:30.527Z,18.35
2022-09-14T01:09:34.552Z,18.41
2022-09-14T01:10:34.576Z,18.36
2022-09-14T01:12:39.064Z,18.32
2022-09-14T01:13:38.613Z,18.30
2022-09-14T01:15:42.646Z,18.33
2022-09-14T01:16:42.718Z,18.33
2022-09-14T01:18:47.181Z,18.27
2022-09-14T01:19:46.712Z,18.39
2022-09-14T01:21:39.652Z,18.33
2022-09-14T01:22:39.671Z,18.36
2022-09-14T01:24:44.155Z,18.42
2022-09-14T01:25:43.711Z,18.41
2022-09-14T01:27:47.735Z,18.45
2022-09-14T01:28:47.755Z,18.41
2022-09-14T01:30:52.246Z,18.41
2022-09-14T01:31:51.892Z,18.30
2022-09-14T01:33:55.832Z,18.27
2022-09-14T01:34:55.843Z,18.26
2022-09-14T01:37:00.761Z,18.18
2022-09-14T01:37:59.888Z,18.18
2022-09-14T01:40:04.011Z,18.18
2022-09-14T01:41:03.935Z,18.14
2022-09-14T01:43:08.421Z,18.14
2022-09-14T01:44:07.974Z,18.10
2022-09-14T01:46:12.046Z,18.00
2022-09-14T01:47:12.018Z,17.99
2022-09-14T01:49:16.513Z,18.00
2022-09-14T01:50:16.059Z,17.90
2022-09-14T01:52:20.083Z,17.81
2022-09-14T01:53:20.097Z,17.81
2022-09-14T01:55:24.590Z,17.79
2022-09-14T01:56:24.171Z,17.78
2022-09-14T01:58:28.285Z,17.79
2022-09-14T01:59:28.219Z,17.81
2022-09-14T02:01:21.747Z,17.77
2022-09-14T02:02:21.232Z,17.75
2022-09-14T02:04:25.208Z,17.72
2022-09-14T02:05:25.221Z,17.77
2022-09-14T02:07:29.715Z,17.79
2022-09-14T02:08:29.263Z,17.75
2022-09-14T02:10:33.286Z,17.82
2022-09-14T02:11:33.305Z,17.75
2022-09-14T02:13:37.793Z,17.66
2022-09-14T02:14:37.343Z,17.66
2022-09-14T02:16:41.928Z,17.72
2022-09-14T02:17:41.876Z,17.58
2022-09-14T02:18:41.899Z,17.56
2022-09-14T02:19:41.929Z,17.72
2022-09-14T02:20:41.954Z,17.72
2022-09-14T02:21:41.984Z,17.66
2022-09-14T02:22:42.006Z,17.62
2022-09-14T02:23:42.033Z,17.56
2022-09-14T02:24:42.057Z,17.51
2022-09-14T02:25:42.085Z,17.58
2022-09-14T02:26:42.117Z,17.44
2022-09-14T02:27:42.135Z,17.46
2022-09-14T02:28:42.247Z,17.54
2022-09-14T02:29:42.193Z,17.44
2022-09-14T02:30:42.216Z,17.49
2022-09-14T02:31:42.258Z,17.41
2022-09-14T02:32:42.272Z,17.38
2022-09-14T02:33:42.295Z,17.43
2022-09-14T02:34:42.320Z,17.28
2022-09-14T02:35:42.345Z,17.33
2022-09-14T02:36:42.375Z,17.30
2022-09-14T02:37:42.400Z,17.31
2022-09-14T02:38:42.426Z,17.26
2022-09-14T02:39:42.494Z,17.22
2022-09-14T02:40:42.477Z,17.23
2022-09-14T02:41:42.502Z,17.22
2022-09-14T02:42:42.538Z,17.14
2022-09-14T02:43:42.556Z,17.16
2022-09-14T02:44:42.582Z,17.12
2022-09-14T02:45:42.606Z,17.12
2022-09-14T02:46:42.737Z,17.14
2022-09-14T02:47:42.658Z,17.08
2022-09-14T02:48:42.688Z,16.98
2022-09-14T02:49:42.711Z,17.03
2022-09-14T02:50:42.738Z,17.06
2022-09-14T02:51:42.764Z,16.94
2022-09-14T02:52:42.789Z,17.00
2022-09-14T02:53:42.818Z,16.96
2022-09-14T02:54:42.840Z,16.82
2022-09-14T02:55:42.869Z,16.85
2022-09-14T02:56:42.898Z,16.86
2022-09-14T02:57:42.921Z,16.86
2022-09-14T02:58:43.000Z,16.81
2022-09-14T02:59:42.969Z,16.78
2022-09-14T03:00:43.057Z,16.76
2022-09-14T03:01:43.049Z,16.79
2022-09-14T03:02:43.044Z,16.79
2022-09-14T03:03:43.071Z,16.71
2022-09-14T03:04:43.099Z,16.73
2022-09-14T03:05:43.130Z,16.79
2022-09-14T03:06:43.148Z,16.76
2022-09-14T03:07:43.178Z,16.68
2022-09-14T03:08:43.262Z,16.73
2022-09-14T03:09:43.229Z,16.67
2022-09-14T03:10:43.252Z,16.64
2022-09-14T03:11:43.282Z,16.75
2022-09-14T03:12:43.306Z,16.67
2022-09-14T03:13:43.328Z,16.64
2022-09-14T03:14:43.357Z,16.61
2022-09-14T03:15:43.409Z,16.63
2022-09-14T03:16:43.411Z,16.60
2022-09-14T03:17:43.434Z,16.64
2022-09-14T03:18:43.577Z,16.67
2022-09-14T03:19:43.487Z,16.64
2022-09-14T03:20:43.507Z,16.61
2022-09-14T03:21:43.542Z,16.64
2022-09-14T03:22:43.563Z,16.76
2022-09-14T03:23:43.590Z,16.64
2022-09-14T03:24:43.614Z,16.64
2022-09-14T03:25:43.646Z,16.73
2022-09-14T03:26:43.664Z,16.75
2022-09-14T03:27:43.692Z,16.73
2022-09-14T03:28:43.721Z,16.78
2022-09-14T03:29:43.742Z,16.79
2022-09-14T03:30:43.771Z,16.79
2022-09-14T03:31:43.892Z,16.71
2022-09-14T03:32:43.820Z,16.68
2022-09-14T03:33:43.931Z,16.64
2022-09-14T03:34:43.871Z,16.67
2022-09-14T03:35:43.899Z,16.63
2022-09-14T03:36:43.923Z,16.57
2022-09-14T03:37:43.952Z,16.57
2022-09-14T03:38:43.976Z,16.57
2022-09-14T03:39:44.027Z,16.56
2022-09-14T03:40:44.027Z,16.64
2022-09-14T03:41:44.055Z,16.49
2022-09-14T03:42:44.082Z,16.57
2022-09-14T03:43:44.178Z,16.50
2022-09-14T03:44:44.130Z,16.58
2022-09-14T03:45:44.157Z,16.57
2022-09-14T03:46:44.256Z,16.58
2022-09-14T03:47:44.210Z,16.60
2022-09-14T03:48:44.232Z,16.61
2022-09-14T03:49:44.260Z,16.60
2022-09-14T03:50:44.285Z,16.66
2022-09-14T03:51:44.311Z,16.68
2022-09-14T03:52:44.335Z,16.60
2022-09-14T03:53:44.487Z,16.66
2022-09-14T03:54:44.389Z,16.57
2022-09-14T03:55:44.412Z,16.66
2022-09-14T03:56:44.440Z,16.49
2022-09-14T03:57:44.470Z,16.46
2022-09-14T03:58:44.490Z,16.60
2022-09-14T03:59:44.517Z,16.58
2022-09-14T04:00:44.547Z,16.57
2022-09-14T04:01:44.639Z,16.52
2022-09-14T04:02:44.642Z,16.63
2022-09-14T04:03:44.620Z,16.60
2022-09-14T04:04:44.704Z,16.52
2022-09-14T04:05:44.672Z,16.60
2022-09-14T04:06:44.695Z,16.61
2022-09-14T04:07:44.723Z,16.64
2022-09-14T04:08:44.744Z,16.57
2022-09-14T04:09:44.774Z,16.53
2022-09-14T04:10:44.797Z,16.57
2022-09-14T04:11:44.819Z,16.48
2022-09-14T04:12:44.852Z,16.49
2022-09-14T04:13:44.877Z,16.49
2022-09-14T04:14:44.902Z,16.57
2022-09-14T04:15:44.967Z,16.46
2022-09-14T04:16:44.954Z,16.48
2022-09-14T04:17:44.977Z,16.43
2022-09-14T04:18:45.005Z,16.45
2022-09-14T04:19:45.028Z,16.42
2022-09-14T04:20:45.056Z,16.50
2022-09-14T04:21:45.081Z,16.42
2022-09-14T04:22:45.105Z,16.42
2022-09-14T04:24:13.584Z,16.43
2022-09-14T04:24:45.156Z,16.38
2022-09-14T04:25:45.187Z,16.35
2022-09-14T04:26:45.211Z,16.33
2022-09-14T04:27:55.044Z,16.33
2022-09-14T04:28:45.259Z,16.31
2022-09-14T04:29:45.284Z,16.33
2022-09-14T04:30:45.309Z,16.35
2022-09-14T04:31:45.360Z,16.34
2022-09-14T04:32:45.356Z,16.34
2022-09-14T04:33:45.390Z,16.24
2022-09-14T04:34:45.412Z,16.15
2022-09-14T04:35:45.438Z,16.20
2022-09-14T04:36:45.469Z,16.21
2022-09-14T04:37:45.492Z,16.27
2022-09-14T04:38:45.514Z,16.21
2022-09-14T04:39:45.642Z,16.24
2022-09-14T04:40:45.564Z,16.21
2022-09-14T04:41:45.596Z,16.24
2022-09-14T04:42:45.616Z,16.25
2022-09-14T04:43:45.645Z,16.33
2022-09-14T04:44:45.667Z,16.31
2022-09-14T04:45:45.694Z,16.23
2022-09-14T04:46:47.094Z,16.34
2022-09-14T04:47:45.751Z,16.25
2022-09-14T04:48:45.771Z,16.28
2022-09-14T04:49:45.798Z,16.24
2022-09-14T04:50:45.819Z,16.27
2022-09-14T04:51:45.852Z,16.24
2022-09-14T04:52:45.955Z,16.21
2022-09-14T04:53:45.895Z,16.15
2022-09-14T04:54:45.921Z,16.20
2022-09-14T04:55:45.944Z,16.17
2022-09-14T04:56:45.997Z,16.20
2022-09-14T04:57:46.003Z,16.14
2022-09-14T04:58:50.697Z,16.27
2022-09-14T04:59:46.047Z,16.15
2022-09-14T05:00:46.078Z,16.28
2022-09-14T05:01:46.147Z,16.24
2022-09-14T05:02:46.193Z,16.24
2022-09-14T05:03:46.155Z,16.38
2022-09-14T05:04:46.177Z,16.34
2022-09-14T05:05:46.208Z,16.35
2022-09-14T05:06:46.227Z,16.35
2022-09-14T05:07:46.252Z,16.34
2022-09-14T05:08:46.287Z,16.30
2022-09-14T05:09:46.318Z,16.39
2022-09-14T05:10:46.330Z,16.41
2022-09-14T05:11:46.355Z,16.34
2022-09-14T05:12:46.401Z,16.38
2022-09-14T05:13:50.022Z,16.35
2022-09-14T05:14:46.434Z,16.24
2022-09-14T05:15:46.497Z,16.33
2022-09-14T05:16:46.480Z,16.31
2022-09-14T05:17:46.510Z,16.34
2022-09-14T05:18:46.536Z,16.35
2022-09-14T05:19:46.560Z,16.33
2022-09-14T05:20:46.612Z,16.34
2022-09-14T05:21:46.615Z,16.34
2022-09-14T05:22:46.642Z,16.25
2022-09-14T05:23:46.682Z,16.38
2022-09-14T05:24:46.804Z,16.34
2022-09-14T05:25:46.736Z,16.35
2022-09-14T05:26:46.740Z,16.35
2022-09-14T05:27:46.767Z,16.35
2022-09-14T05:28:46.793Z,16.39
2022-09-14T05:29:46.817Z,16.28
2022-09-14T05:30:46.880Z,16.30
2022-09-14T05:31:46.870Z,16.42
2022-09-14T05:32:46.907Z,16.34
2022-09-14T05:33:46.973Z,16.39
2022-09-14T05:34:46.942Z,16.33
2022-09-14T05:35:46.972Z,16.34
2022-09-14T05:36:46.998Z,16.31
2022-09-14T05:37:47.022Z,16.31
2022-09-14T05:38:47.051Z,16.31
2022-09-14T05:39:47.109Z,16.42
2022-09-14T05:40:47.135Z,16.31
2022-09-14T05:41:47.123Z,16.35
2022-09-14T05:42:47.148Z,16.30
2022-09-14T05:43:47.174Z,16.33
2022-09-14T05:44:47.212Z,16.35
2022-09-14T05:45:47.238Z,16.42
2022-09-14T05:46:47.296Z,16.39
2022-09-14T05:47:47.280Z,16.45
2022-09-14T05:48:47.301Z,16.42
2022-09-14T05:49:47.329Z,16.43
2022-09-14T05:50:47.373Z,16.45
2022-09-14T05:51:47.378Z,16.50
2022-09-14T05:52:47.408Z,16.41
2022-09-14T05:53:47.429Z,16.39
2022-09-14T05:54:47.453Z,16.41
2022-09-14T05:55:47.482Z,16.43
2022-09-14T05:56:47.508Z,16.43
2022-09-14T05:57:47.532Z,16.43
2022-09-14T05:58:47.562Z,16.46
2022-09-14T05:59:47.587Z,16.42
2022-09-14T06:00:47.622Z,16.34
2022-09-14T06:01:47.674Z,16.39
2022-09-14T06:02:47.679Z,16.45
2022-09-14T06:03:47.689Z,16.38
2022-09-14T06:04:47.713Z,16.52
2022-09-14T06:05:47.801Z,16.49
2022-09-14T06:07:07.755Z,16.53
2022-09-14T06:07:47.802Z,16.46
2022-09-14T06:08:47.820Z,16.56
2022-09-14T06:09:47.840Z,16.52
2022-09-14T06:10:47.864Z,16.45
2022-09-14T06:11:47.895Z,16.46
2022-09-14T06:12:49.491Z,16.45
2022-09-14T06:13:47.954Z,16.52
2022-09-14T06:14:47.969Z,16.46
2022-09-14T06:15:47.994Z,16.49
2022-09-14T06:16:48.015Z,16.52
2022-09-14T06:17:48.049Z,16.53
2022-09-14T06:18:48.069Z,16.56
2022-09-14T06:19:48.094Z,16.61
2022-09-14T06:20:48.122Z,16.68
2022-09-14T06:21:48.158Z,16.71
2022-09-14T06:22:48.173Z,16.66
2022-09-14T06:23:55.375Z,16.64
2022-09-14T06:25:52.700Z,16.75
2022-09-14T06:26:52.245Z,16.83
2022-09-14T06:28:45.374Z,16.86
2022-09-14T06:29:45.387Z,16.85
2022-09-14T06:31:38.867Z,16.86
2022-09-14T06:32:38.350Z,16.82
2022-09-14T06:34:42.377Z,16.88
2022-09-14T06:35:42.391Z,16.91
2022-09-14T06:37:46.890Z,16.94
2022-09-14T06:38:46.451Z,17.03
2022-09-14T06:40:50.444Z,16.96
2022-09-14T06:41:50.464Z,17.00
2022-09-14T06:43:43.942Z,17.08
2022-09-14T06:44:43.621Z,16.97
2022-09-14T06:46:47.831Z,16.96
2022-09-14T06:47:47.657Z,17.03
2022-09-14T06:49:52.151Z,16.97
2022-09-14T06:50:51.716Z,17.06
2022-09-14T06:52:44.833Z,17.04
2022-09-14T06:53:44.867Z,17.07
2022-09-14T06:55:50.854Z,17.11
2022-09-14T06:56:48.906Z,17.00
2022-09-14T06:58:52.948Z,16.97
2022-09-14T06:59:53.006Z,17.07
2022-09-14T07:01:46.490Z,16.96
2022-09-14T07:02:46.090Z,16.97
2022-09-14T07:04:49.935Z,17.06
2022-09-14T07:05:49.950Z,17.06
2022-09-14T07:07:54.449Z,17.11
2022-09-14T07:08:53.995Z,17.08
2022-09-14T07:10:46.935Z,17.11
2022-09-14T07:11:46.956Z,17.16
2022-09-14T07:13:51.450Z,17.28
2022-09-14T07:14:51.009Z,17.26
2022-09-14T07:16:55.139Z,17.26
2022-09-14T07:17:55.052Z,17.40
2022-09-14T07:20:00.075Z,17.46
2022-09-14T07:21:03.496Z,17.44
2022-09-14T07:21:59.619Z,17.43
2022-09-14T07:22:59.645Z,17.54
2022-09-14T07:23:59.668Z,17.56
2022-09-14T07:24:59.696Z,17.54
2022-09-14T07:25:59.729Z,17.54
2022-09-14T07:26:59.751Z,17.63
2022-09-14T07:27:59.788Z,17.66
2022-09-14T07:28:59.799Z,17.75
2022-09-14T07:29:59.824Z,17.70
2022-09-14T07:30:59.874Z,17.79
2022-09-14T07:31:59.886Z,17.72
2022-09-14T07:32:59.906Z,17.86
2022-09-14T07:33:59.932Z,17.92
2022-09-14T07:34:59.966Z,17.97
2022-09-14T07:35:59.987Z,17.99
2022-09-14T07:37:00.013Z,17.96
2022-09-14T07:38:00.043Z,18.07
2022-09-14T07:39:00.086Z,18.08
2022-09-14T07:40:00.140Z,18.07
2022-09-14T07:41:00.123Z,18.08
2022-09-14T07:42:00.150Z,18.14
2022-09-14T07:43:00.178Z,18.08
2022-09-14T07:44:00.266Z,18.14
2022-09-14T07:45:00.229Z,18.02
2022-09-14T07:46:00.331Z,18.05
2022-09-14T07:47:00.285Z,18.12
2022-09-14T07:48:00.320Z,17.96
2022-09-14T07:49:00.343Z,17.99
2022-09-14T07:50:00.510Z,17.87
2022-09-14T07:51:00.393Z,17.82
2022-09-14T07:52:00.417Z,17.87
2022-09-14T07:53:00.448Z,17.90
2022-09-14T07:54:00.475Z,17.82
2022-09-14T07:55:00.498Z,17.82
2022-09-14T07:56:00.528Z,17.92
2022-09-14T07:57:00.561Z,17.90
2022-09-14T07:58:00.599Z,17.81
2022-09-14T07:59:30.808Z,17.89
2022-09-14T08:00:00.636Z,17.95
2022-09-14T08:01:00.695Z,17.93
2022-09-14T08:02:00.793Z,17.93
2022-09-14T08:03:00.716Z,17.97
2022-09-14T08:04:05.202Z,18.00
2022-09-14T08:05:00.774Z,18.03
2022-09-14T08:06:00.799Z,18.05
2022-09-14T08:07:00.837Z,18.10
2022-09-14T08:08:00.870Z,18.07
2022-09-14T08:09:00.878Z,18.00
2022-09-14T08:10:00.908Z,18.12
2022-09-14T08:11:00.937Z,18.02
2022-09-14T08:12:00.962Z,18.03
2022-09-14T08:13:00.988Z,18.11
2022-09-14T08:14:01.012Z,18.08
2022-09-14T08:15:01.042Z,18.10
2022-09-14T08:16:01.068Z,18.26
2022-09-14T08:17:01.184Z,18.27
2022-09-14T08:18:01.125Z,18.26
2022-09-14T08:19:01.150Z,18.26
2022-09-14T08:20:01.179Z,18.21
2022-09-14T08:21:01.203Z,18.20
2022-09-14T08:22:01.234Z,18.25
2022-09-14T08:23:01.264Z,18.26
2022-09-14T08:24:01.292Z,18.27
2022-09-14T08:25:01.317Z,18.23
2022-09-14T08:26:01.340Z,18.32
2022-09-14T08:27:01.380Z,18.21
2022-09-14T08:28:01.395Z,18.29
2022-09-14T08:29:01.435Z,18.33
2022-09-14T08:30:01.452Z,18.27
2022-09-14T08:31:01.478Z,18.23
2022-09-14T08:32:01.608Z,18.29
2022-09-14T08:33:02.081Z,18.21
2022-09-14T08:34:01.561Z,18.26
2022-09-14T08:35:01.589Z,18.33
2022-09-14T08:36:01.699Z,18.35
2022-09-14T08:37:01.643Z,18.33
2022-09-14T08:38:01.671Z,18.44
2022-09-14T08:39:01.694Z,18.39
2022-09-14T08:40:01.740Z,18.37
2022-09-14T08:41:01.749Z,18.45
2022-09-14T08:42:01.777Z,18.47
2022-09-14T08:43:01.805Z,18.45
2022-09-14T08:44:01.829Z,18.54
2022-09-14T08:45:02.570Z,18.52
2022-09-14T08:46:01.986Z,18.57
2022-09-14T08:47:01.916Z,18.63
2022-09-14T08:48:01.944Z,18.52
2022-09-14T08:49:01.968Z,18.55
2022-09-14T08:50:01.997Z,18.48
2022-09-14T08:51:02.029Z,18.54
2022-09-14T08:52:02.066Z,18.57
2022-09-14T08:53:02.081Z,18.67
2022-09-14T08:54:02.108Z,18.62
2022-09-14T08:55:02.132Z,18.67
2022-09-14T08:56:02.165Z,18.66
2022-09-14T08:57:02.199Z,18.78
2022-09-14T08:58:02.216Z,18.87
2022-09-14T08:59:02.247Z,18.84
2022-09-14T09:00:02.280Z,19.00
2022-09-14T09:01:02.324Z,18.95
2022-09-14T09:02:02.332Z,19.06
2022-09-14T09:03:02.359Z,18.99
2022-09-14T09:04:02.411Z,19.06
2022-09-14T09:05:02.445Z,19.07
2022-09-14T09:06:02.437Z,19.06
2022-09-14T09:07:02.466Z,19.13
2022-09-14T09:08:02.583Z,19.07
2022-09-14T09:09:02.526Z,19.18
2022-09-14T09:10:02.551Z,19.19
2022-09-14T09:11:02.580Z,19.18
2022-09-14T09:12:02.609Z,19.07
2022-09-14T09:13:02.655Z,19.08
2022-09-14T09:14:02.658Z,19.08
2022-09-14T09:15:02.689Z,19.02
2022-09-14T09:16:02.779Z,19.06
2022-09-14T09:17:02.749Z,19.11
2022-09-14T09:18:02.774Z,19.16
2022-09-14T09:19:02.806Z,19.08
2022-09-14T09:20:02.834Z,19.16
2022-09-14T09:21:02.890Z,18.99
2022-09-14T09:22:02.881Z,19.02
2022-09-14T09:23:02.912Z,18.94
2022-09-14T09:24:02.968Z,19.04
2022-09-14T09:25:02.969Z,18.94
2022-09-14T09:26:02.993Z,18.92
2022-09-14T09:27:03.023Z,18.98
2022-09-14T09:28:03.053Z,18.99
2022-09-14T09:29:03.081Z,18.95
2022-09-14T09:30:03.109Z,18.84
2022-09-14T09:31:03.203Z,18.81
2022-09-14T09:32:03.232Z,18.90
2022-09-14T09:33:03.197Z,18.81
2022-09-14T09:34:03.219Z,18.82
2022-09-14T09:35:03.247Z,18.84
2022-09-14T09:36:03.275Z,18.82
2022-09-14T09:37:03.302Z,18.80
2022-09-14T09:38:03.332Z,18.91
2022-09-14T09:39:05.283Z,18.85
2022-09-14T09:40:03.497Z,18.87
2022-09-14T09:41:03.415Z,18.87
2022-09-14T09:42:03.445Z,18.85
2022-09-14T09:43:03.471Z,18.80
2022-09-14T09:44:03.498Z,18.87
2022-09-14T09:45:04.212Z,18.85
2022-09-14T09:46:03.552Z,18.88
2022-09-14T09:47:03.660Z,18.85
2022-09-14T09:48:03.621Z,18.82
2022-09-14T09:49:03.633Z,18.87
2022-09-14T09:50:03.658Z,18.95
2022-09-14T09:51:03.690Z,18.88
2022-09-14T09:52:03.734Z,18.85
2022-09-14T09:53:06.789Z,18.80
2022-09-14T09:54:03.773Z,18.95
2022-09-14T09:55:03.804Z,18.99
2022-09-14T09:56:03.872Z,19.04
2022-09-14T09:57:03.858Z,19.13
2022-09-14T09:58:03.882Z,19.02
2022-09-14T09:59:03.915Z,19.11
2022-09-14T10:00:03.942Z,19.21
2022-09-14T10:01:05.325Z,19.13
2022-09-14T10:02:04.047Z,19.11
2022-09-14T10:03:04.023Z,19.13
2022-09-14T10:04:04.052Z,19.13
2022-09-14T10:05:04.100Z,19.11
2022-09-14T10:06:04.112Z,18.98
2022-09-14T10:07:04.135Z,18.99
2022-09-14T10:08:08.080Z,18.95
2022-09-14T10:09:04.191Z,19.00
2022-09-14T10:10:04.237Z,18.99
2022-09-14T10:11:04.244Z,19.00
2022-09-14T10:12:04.280Z,18.98
2022-09-14T10:13:04.299Z,18.94
2022-09-14T10:14:04.331Z,18.88
2022-09-14T10:15:04.362Z,18.88
2022-09-14T10:16:04.413Z,18.85
2022-09-14T10:17:04.416Z,18.81
2022-09-14T10:18:04.445Z,18.81
2022-09-14T10:19:04.476Z,18.90
2022-09-14T10:20:04.500Z,18.84
2022-09-14T10:21:04.540Z,18.85
2022-09-14T10:22:04.554Z,18.84
2022-09-14T10:23:04.578Z,18.91
2022-09-14T10:24:04.609Z,18.88
2022-09-14T10:25:04.634Z,18.94
2022-09-14T10:26:04.661Z,18.95
2022-09-14T10:27:04.692Z,18.99
2022-09-14T10:28:04.728Z,18.98
2022-09-14T10:29:04.753Z,18.94
2022-09-14T10:30:04.773Z,18.99
2022-09-14T10:31:04.895Z,18.98
2022-09-14T10:32:04.832Z,18.84
2022-09-14T10:33:04.859Z,18.85
2022-09-14T10:34:04.906Z,18.91
2022-09-14T10:35:04.917Z,18.98
2022-09-14T10:36:04.942Z,18.95
2022-09-14T10:37:04.969Z,18.94
2022-09-14T10:38:04.999Z,18.88
2022-09-14T10:39:05.026Z,18.95
2022-09-14T10:40:05.206Z,19.02
2022-09-14T10:41:05.084Z,18.99
2022-09-14T10:42:05.111Z,18.98
2022-09-14T10:43:05.138Z,18.95
2022-09-14T10:44:05.166Z,18.84
2022-09-14T10:45:05.194Z,18.81
2022-09-14T10:46:05.242Z,18.84
2022-09-14T10:47:05.331Z,18.91
2022-09-14T10:48:05.274Z,18.90
2022-09-14T10:49:05.310Z,18.80
2022-09-14T10:50:05.355Z,18.84
2022-09-14T10:51:05.360Z,18.88
2022-09-14T10:52:05.390Z,18.84
2022-09-14T10:53:05.415Z,18.85
2022-09-14T10:54:05.445Z,18.82
2022-09-14T10:55:05.470Z,18.81
2022-09-14T10:56:05.500Z,18.76
2022-09-14T10:57:05.538Z,18.76
2022-09-14T10:58:05.556Z,18.82
2022-09-14T10:59:05.583Z,18.80
2022-09-14T11:00:05.615Z,18.78
2022-09-14T11:01:05.640Z,18.76
2022-09-14T11:02:05.787Z,18.72
2022-09-14T11:03:05.745Z,18.82
2022-09-14T11:04:05.725Z,18.67
2022-09-14T11:05:05.758Z,18.62
2022-09-14T11:06:05.923Z,18.67
2022-09-14T11:07:05.807Z,18.58
2022-09-14T11:08:05.907Z,18.52
2022-09-14T11:09:05.858Z,18.50
2022-09-14T11:10:05.887Z,18.51
2022-09-14T11:11:10.727Z,18.47
2022-09-14T11:12:05.943Z,18.47
2022-09-14T11:13:05.971Z,18.45
2022-09-14T11:14:06.064Z,18.54
2022-09-14T11:15:06.031Z,18.58
2022-09-14T11:16:06.187Z,18.52
2022-09-14T11:17:06.079Z,18.58
2022-09-14T11:18:06.105Z,18.58
2022-09-14T11:19:06.139Z,18.58
2022-09-14T11:20:06.165Z,18.65
2022-09-14T11:21:06.194Z,18.65
2022-09-14T11:22:06.218Z,18.72
2022-09-14T11:23:06.247Z,18.63
2022-09-14T11:24:06.274Z,18.66
2022-09-14T11:25:06.300Z,18.58
2022-09-14T11:26:06.457Z,18.67
2022-09-14T11:27:06.356Z,18.70
2022-09-14T11:28:06.385Z,18.67
2022-09-14T11:29:06.411Z,18.70
2022-09-14T11:30:06.440Z,18.70
2022-09-14T11:31:06.618Z,18.57
2022-09-14T11:32:22.215Z,18.57
2022-09-14T11:33:06.520Z,18.44
2022-09-14T11:34:06.547Z,18.50
2022-09-14T11:35:06.576Z,18.47
2022-09-14T11:36:06.607Z,18.45
2022-09-14T11:37:06.629Z,18.58
2022-09-14T11:38:06.661Z,18.51
2022-09-14T11:39:07.107Z,18.48
2022-09-14T11:40:06.826Z,18.47
2022-09-14T11:41:06.741Z,18.54
2022-09-14T11:42:06.769Z,18.47
2022-09-14T11:43:06.795Z,18.47
2022-09-14T11:44:06.823Z,18.45
2022-09-14T11:45:06.853Z,18.48
2022-09-14T11:46:07.018Z,18.50
2022-09-14T11:47:06.905Z,18.44
2022-09-14T11:48:25.473Z,18.48
2022-09-14T11:49:06.962Z,18.52
2022-09-14T11:50:06.987Z,18.52
2022-09-14T11:51:07.017Z,18.54
2022-09-14T11:52:07.048Z,18.52
2022-09-14T11:53:07.070Z,18.54
2022-09-14T11:54:07.102Z,18.52
2022-09-14T11:55:07.128Z,18.54
2022-09-14T11:56:07.158Z,18.55
2022-09-14T11:57:07.179Z,18.62
2022-09-14T11:58:07.210Z,18.58
2022-09-14T11:59:07.251Z,18.58
2022-09-14T12:00:07.325Z,18.66
2022-09-14T12:01:07.293Z,18.67
2022-09-14T12:02:07.662Z,18.69
2022-09-14T12:03:07.448Z,18.63
2022-09-14T12:04:07.531Z,18.72
2022-09-14T12:05:07.421Z,18.72
2022-09-14T12:06:07.432Z,18.70
2022-09-14T12:07:07.456Z,18.63
2022-09-14T12:08:07.506Z,18.63
2022-09-14T12:09:07.512Z,18.52
2022-09-14T12:10:07.542Z,18.57
2022-09-14T12:11:07.568Z,18.52
2022-09-14T12:12:07.596Z,18.48
2022-09-14T12:13:07.625Z,18.45
2022-09-14T12:14:07.671Z,18.44
2022-09-14T12:15:07.678Z,18.44
2022-09-14T12:16:07.763Z,18.45
2022-09-14T12:17:28.635Z,18.41
2022-09-14T12:18:07.767Z,18.45
2022-09-14T12:19:07.790Z,18.51
2022-09-14T12:20:07.818Z,18.45
2022-09-14T12:21:07.845Z,18.48
2022-09-14T12:22:07.873Z,18.52
2022-09-14T12:23:07.898Z,18.51
2022-09-14T12:24:07.926Z,18.57
2022-09-14T12:25:07.954Z,18.57
2022-09-14T12:26:08.005Z,18.67
2022-09-14T12:27:15.248Z,18.63
2022-09-14T12:29:12.504Z,18.63
2022-09-14T12:30:12.059Z,18.58
2022-09-14T12:32:16.093Z,18.60
2022-09-14T12:33:16.110Z,18.62
2022-09-14T12:35:20.728Z,18.54
2022-09-14T12:36:20.154Z,18.55
2022-09-14T12:38:24.186Z,18.58
2022-09-14T12:39:24.202Z,18.58
2022-09-14T12:41:17.686Z,18.51
2022-09-14T12:42:17.161Z,18.51
2022-09-14T12:44:21.195Z,18.58
2022-09-14T12:45:21.207Z,18.62
2022-09-14T12:47:26.342Z,18.69
2022-09-14T12:48:25.739Z,18.70
2022-09-14T12:49:25.776Z,18.55
2022-09-14T12:50:25.878Z,18.62
2022-09-14T12:51:25.823Z,18.52
2022-09-14T12:52:25.850Z,18.69
2022-09-14T12:53:25.876Z,18.62
2022-09-14T12:54:25.907Z,18.62
2022-09-14T12:55:25.928Z,18.60
2022-09-14T12:56:25.960Z,18.69
2022-09-14T12:57:26.005Z,18.62
2022-09-14T12:58:26.011Z,18.70
2022-09-14T12:59:26.043Z,18.72
2022-09-14T13:00:26.072Z,18.67
2022-09-14T13:01:26.215Z,18.70
2022-09-14T13:02:26.249Z,18.67
2022-09-14T13:03:26.160Z,18.69
2022-09-14T13:04:26.184Z,18.69
2022-09-14T13:05:26.208Z,18.70
2022-09-14T13:06:26.249Z,18.78
2022-09-14T13:07:26.266Z,18.65
2022-09-14T13:08:26.291Z,18.75
2022-09-14T13:09:26.319Z,18.62
2022-09-14T13:10:26.350Z,18.72
2022-09-14T13:11:26.378Z,18.60
2022-09-14T13:12:26.402Z,18.62
2022-09-14T13:13:26.429Z,18.54
2022-09-14T13:14:26.460Z,18.57
2022-09-14T13:15:26.485Z,18.52
2022-09-14T13:16:26.544Z,18.51
2022-09-14T13:17:26.540Z,18.52
2022-09-14T13:18:26.599Z,18.63
2022-09-14T13:19:26.604Z,18.52
2022-09-14T13:20:26.659Z,18.51
2022-09-14T13:21:26.653Z,18.55
2022-09-14T13:22:26.678Z,18.55
2022-09-14T13:23:26.705Z,18.58
2022-09-14T13:24:26.732Z,18.50
2022-09-14T13:25:26.761Z,18.50
2022-09-14T13:26:26.790Z,18.51
2022-09-14T13:27:26.815Z,18.50
2022-09-14T13:28:26.843Z,18.50
2022-09-14T13:29:26.870Z,18.51
2022-09-14T13:30:26.975Z,18.50
2022-09-14T13:31:26.994Z,18.45
2022-09-14T13:32:26.959Z,18.41
2022-09-14T13:33:26.982Z,18.37
2022-09-14T13:34:27.009Z,18.37
2022-09-14T13:35:27.034Z,18.27
2022-09-14T13:36:27.063Z,18.37
2022-09-14T13:37:27.090Z,18.23
2022-09-14T13:38:27.124Z,18.35
2022-09-14T13:39:27.145Z,18.35
2022-09-14T13:40:27.239Z,18.35
2022-09-14T13:41:27.200Z,18.36
2022-09-14T13:42:27.234Z,18.37
2022-09-14T13:43:27.256Z,18.44
2022-09-14T13:44:27.284Z,18.39
2022-09-14T13:45:27.311Z,18.36
2022-09-14T13:46:27.398Z,18.41
2022-09-14T13:47:27.365Z,18.33
2022-09-14T13:48:27.391Z,18.37
2022-09-14T13:49:27.420Z,18.44
2022-09-14T13:50:27.448Z,18.35
2022-09-14T13:51:27.476Z,18.42
2022-09-14T13:52:38.988Z,18.39
2022-09-14T13:53:27.528Z,18.36
2022-09-14T13:54:27.570Z,18.37
2022-09-14T13:55:27.584Z,18.42
2022-09-14T13:56:27.614Z,18.45
2022-09-14T13:57:27.635Z,18.44
2022-09-14T13:58:27.674Z,18.50
2022-09-14T13:59:27.694Z,18.42
2022-09-14T14:00:27.748Z,18.50
2022-09-14T14:01:27.789Z,18.42